createdAt,value
2023-01-15T00:02:21.016Z,3.60
2023-01-15T00:07:24.511Z,3.77
2023-01-15T00:12:26.667Z,3.90
2023-01-15T00:17:28.855Z,3.47
2023-01-15T00:22:32.334Z,3.00
2023-01-15T00:27:35.198Z,2.80
2023-01-15T00:32:37.412Z,4.17
2023-01-15T00:37:41.202Z,2.30
2023-01-15T00:42:46.375Z,2.53
2023-01-15T00:47:56.788Z,3.03
2023-01-15T00:53:00.479Z,3.13
2023-01-15T00:58:02.756Z,2.83
2023-01-15T01:03:05.224Z,2.83
2023-01-15T01:08:09.013Z,2.55
2023-01-15T01:13:12.342Z,2.00
2023-01-15T01:18:15.131Z,2.50
2023-01-15T01:23:19.275Z,2.87
2023-01-15T01:28:21.664Z,2.30
2023-01-15T01:33:23.884Z,1.77
2023-01-15T01:38:27.415Z,2.17
2023-01-15T01:43:30.674Z,1.83
2023-01-15T01:48:34.505Z,1.73
2023-01-15T01:53:38.868Z,2.08
2023-01-15T01:58:41.250Z,2.03
2023-01-15T02:03:43.768Z,1.70
2023-01-15T02:08:47.298Z,2.22
2023-01-15T02:14:00.483Z,1.70
2023-01-15T02:19:17.884Z,1.75
2023-01-15T02:24:39.174Z,1.98
2023-01-15T02:29:56.485Z,1.90
2023-01-15T02:35:06.547Z,1.95
2023-01-15T02:40:12.815Z,1.90
2023-01-15T02:45:25.585Z,1.83
2023-01-15T02:50:36.238Z,1.88
2023-01-15T02:55:44.360Z,1.67
2023-01-15T03:00:55.402Z,2.53
2023-01-15T03:06:07.345Z,2.10
2023-01-15T03:11:14.832Z,1.73
2023-01-15T03:16:33.846Z,1.52
2023-01-15T03:21:47.037Z,1.70
2023-01-15T03:26:52.010Z,1.60
2023-01-15T03:31:56.815Z,2.33
2023-01-15T03:37:01.427Z,1.35
2023-01-15T03:42:22.230Z,1.83
2023-01-15T03:47:41.390Z,1.30
2023-01-15T03:52:55.358Z,1.80
2023-01-15T03:58:02.382Z,1.73
2023-01-15T04:03:14.067Z,1.30
2023-01-15T04:08:18.126Z,1.30
2023-01-15T04:13:23.782Z,1.63
2023-01-15T04:18:29.896Z,1.23
2023-01-15T04:23:33.263Z,1.50
2023-01-15T04:28:35.460Z,1.30
2023-01-15T04:33:39.388Z,1.85
2023-01-15T04:38:41.625Z,1.47
2023-01-15T04:43:43.789Z,1.80
2023-01-15T04:48:47.506Z,1.73
2023-01-15T04:53:49.913Z,1.60
2023-01-15T04:58:52.250Z,1.75
2023-01-15T05:03:55.884Z,1.73
2023-01-15T05:08:58.533Z,2.00
2023-01-15T05:14:00.728Z,1.90
2023-01-15T05:19:06.044Z,1.73
2023-01-15T05:24:11.492Z,1.73
2023-01-15T05:29:14.148Z,1.70
2023-01-15T05:34:17.700Z,1.52
2023-01-15T05:39:19.863Z,1.97
2023-01-15T05:44:24.822Z,1.60
2023-01-15T05:49:29.911Z,1.80
2023-01-15T05:54:34.964Z,1.80
2023-01-15T05:59:37.111Z,1.73
2023-01-15T06:04:40.633Z,1.90
2023-01-15T06:09:43.206Z,2.00
2023-01-15T06:14:45.413Z,1.60
2023-01-15T06:19:49.019Z,1.77
2023-01-15T06:24:51.156Z,1.95
2023-01-15T06:29:55.333Z,1.90
2023-01-15T06:34:59.057Z,2.47
2023-01-15T06:40:01.299Z,1.77
2023-01-15T06:45:04.052Z,2.23
2023-01-15T06:50:09.290Z,1.70
2023-01-15T06:55:11.420Z,2.03
2023-01-15T07:00:15.126Z,2.43
2023-01-15T07:05:18.659Z,2.63
2023-01-15T07:10:20.932Z,1.90
2023-01-15T07:15:23.099Z,2.70
2023-01-15T07:20:27.101Z,2.05
2023-01-15T07:25:29.238Z,2.03
2023-01-15T07:30:31.394Z,2.33
2023-01-15T07:35:36.088Z,1.80
2023-01-15T07:40:38.199Z,2.05
2023-01-15T07:45:42.005Z,2.58
2023-01-15T07:50:45.540Z,3.50
2023-01-15T07:55:47.820Z,4.60
2023-01-15T08:00:50.048Z,3.47
2023-01-15T08:05:55.063Z,4.07
2023-01-15T08:11:02.436Z,10.88
2023-01-15T08:16:05.132Z,10.93
2023-01-15T08:21:14.878Z,5.18
2023-01-15T08:26:17.067Z,4.33
2023-01-15T08:31:19.404Z,3.40
2023-01-15T08:36:22.941Z,3.60
2023-01-15T08:41:25.185Z,5.87
2023-01-15T08:46:27.680Z,9.50
2023-01-15T08:51:31.290Z,9.20
2023-01-15T08:56:33.570Z,8.02
2023-01-15T09:01:36.298Z,4.72
2023-01-15T09:06:39.971Z,4.80
2023-01-15T09:11:42.393Z,4.20
2023-01-15T09:16:44.762Z,4.00
2023-01-15T09:21:48.261Z,3.75
2023-01-15T09:26:50.483Z,3.90
2023-01-15T09:31:54.114Z,3.10
2023-01-15T09:36:57.725Z,3.67
2023-01-15T09:42:23.473Z,3.13
2023-01-15T09:47:33.348Z,3.20
2023-01-15T09:53:05.701Z,3.10
2023-01-15T09:58:14.410Z,3.93
2023-01-15T10:03:32.966Z,4.10
2023-01-15T10:08:42.640Z,4.43
2023-01-15T10:13:48.817Z,3.60
2023-01-15T10:18:51.469Z,4.15
2023-01-15T10:24:05.469Z,4.80
2023-01-15T10:29:19.133Z,4.85
2023-01-15T10:35:04.306Z,3.60
2023-01-15T10:40:45.828Z,5.65
2023-01-15T10:45:53.691Z,10.00
2023-01-15T10:51:00.046Z,14.10
2023-01-15T10:56:13.695Z,11.35
2023-01-15T11:01:19.442Z,3.30
2023-01-15T11:06:23.809Z,3.45
2023-01-15T11:11:40.100Z,4.10
2023-01-15T11:16:44.391Z,1.93
2023-01-15T11:21:47.426Z,3.22
2023-01-15T11:26:53.147Z,6.33
2023-01-15T11:31:55.324Z,7.38
2023-01-15T11:37:05.686Z,8.30
2023-01-15T11:42:17.881Z,8.67
2023-01-15T11:47:20.061Z,6.03
2023-01-15T11:52:25.251Z,3.87
2023-01-15T11:57:32.525Z,4.43
2023-01-15T12:02:38.158Z,11.98
2023-01-15T12:07:40.768Z,4.97
2023-01-15T12:13:04.930Z,3.92
2023-01-15T12:18:31.991Z,4.50
2023-01-15T12:24:23.635Z,3.00
2023-01-15T12:29:36.192Z,5.05
2023-01-15T12:34:49.745Z,3.80
2023-01-15T12:39:59.204Z,3.30
2023-01-15T12:45:12.036Z,4.57
2023-01-15T12:50:35.090Z,5.85
2023-01-15T12:55:43.090Z,4.43
2023-01-15T13:00:49.578Z,7.20
2023-01-15T13:05:57.602Z,8.32
2023-01-15T13:11:00.151Z,6.73
2023-01-15T13:16:18.146Z,5.80
2023-01-15T13:21:22.782Z,7.43
2023-01-15T13:26:53.382Z,5.80
2023-01-15T13:32:05.874Z,7.10
2023-01-15T13:37:22.224Z,7.63
2023-01-15T13:42:28.517Z,5.97
2023-01-15T13:47:37.032Z,4.00
2023-01-15T13:52:39.898Z,3.40
2023-01-15T13:57:43.740Z,4.03
2023-01-15T14:02:55.684Z,1.93
2023-01-15T14:07:59.442Z,2.20
2023-01-15T14:13:37.360Z,1.98
2023-01-15T14:19:22.889Z,2.50
2023-01-15T14:24:56.103Z,3.28
2023-01-15T14:30:48.078Z,4.13
2023-01-15T14:35:54.174Z,4.43
2023-01-15T14:41:02.257Z,4.63
2023-01-15T14:46:22.246Z,5.07
2023-01-15T14:51:31.876Z,3.28
2023-01-15T14:56:37.447Z,2.73
2023-01-15T15:01:45.510Z,2.35
2023-01-15T15:06:55.256Z,2.70
2023-01-15T15:12:21.497Z,2.40
2023-01-15T15:17:37.172Z,2.35
2023-01-15T15:22:44.530Z,3.00
2023-01-15T15:27:47.145Z,5.43
2023-01-15T15:32:49.549Z,4.97
2023-01-15T15:37:53.911Z,4.47
2023-01-15T15:43:07.326Z,4.63
2023-01-15T15:48:14.284Z,4.73
2023-01-15T15:53:18.588Z,3.22
2023-01-15T15:58:28.738Z,2.75
2023-01-15T16:03:33.287Z,3.30
2023-01-15T16:08:37.411Z,3.08
2023-01-15T16:13:45.891Z,3.40
2023-01-15T16:18:52.124Z,3.17
2023-01-15T16:24:01.054Z,4.15
2023-01-15T16:29:06.920Z,3.67
2023-01-15T16:34:19.787Z,4.10
2023-01-15T16:39:28.882Z,3.67
2023-01-15T16:44:42.843Z,3.83
2023-01-15T16:49:45.160Z,3.60
2023-01-15T16:54:49.001Z,3.43
2023-01-15T16:59:58.560Z,5.05
2023-01-15T17:05:01.537Z,5.47
2023-01-15T17:10:17.350Z,5.85
2023-01-15T17:15:41.024Z,5.20
2023-01-15T17:20:43.301Z,4.90
2023-01-15T17:25:47.863Z,4.25
2023-01-15T17:30:52.844Z,5.20
2023-01-15T17:35:55.138Z,5.05
2023-01-15T17:41:00.776Z,4.30
2023-01-15T17:46:03.084Z,4.80
2023-01-15T17:51:10.340Z,5.78
2023-01-15T17:56:14.139Z,4.57
2023-01-15T18:01:21.198Z,5.57
2023-01-15T18:06:23.642Z,4.35
2023-01-15T18:11:27.350Z,5.40
2023-01-15T18:16:29.884Z,6.30
2023-01-15T18:21:32.247Z,5.73
2023-01-15T18:26:38.934Z,5.07
2023-01-15T18:31:43.369Z,4.53
2023-01-15T18:36:45.880Z,4.00
2023-01-15T18:41:49.476Z,4.50
2023-01-15T18:46:56.124Z,5.60
2023-01-15T18:51:59.443Z,4.22
2023-01-15T18:57:03.814Z,3.65
2023-01-15T19:02:06.116Z,3.70
2023-01-15T19:07:09.545Z,4.15
2023-01-15T19:12:13.742Z,5.37
2023-01-15T19:17:18.824Z,6.70
2023-01-15T19:22:21.000Z,4.45
2023-01-15T19:27:24.722Z,4.43
2023-01-15T19:32:27.304Z,5.38
2023-01-15T19:37:31.962Z,5.70
2023-01-15T19:42:36.496Z,5.25
2023-01-15T19:47:41.488Z,5.72
2023-01-15T19:52:43.786Z,4.30
2023-01-15T19:57:56.504Z,4.53
2023-01-15T20:02:59.446Z,4.63
2023-01-15T20:08:01.804Z,4.07
2023-01-15T20:13:05.878Z,4.13
2023-01-15T20:18:08.962Z,3.30
2023-01-15T20:23:11.545Z,3.67
2023-01-15T20:28:16.306Z,4.53
2023-01-15T20:33:18.607Z,3.75
2023-01-15T20:38:22.643Z,3.55
2023-01-15T20:43:26.557Z,2.80
2023-01-15T20:48:28.749Z,3.00
2023-01-15T20:53:34.347Z,3.23
2023-01-15T20:58:38.079Z,2.70
2023-01-15T21:03:40.759Z,3.30
2023-01-15T21:08:43.421Z,2.73
2023-01-15T21:13:46.908Z,2.67
2023-01-15T21:18:49.143Z,2.03
2023-01-15T21:23:51.319Z,2.13
2023-01-15T21:28:56.007Z,2.67
2023-01-15T21:33:58.224Z,3.03
2023-01-15T21:39:01.373Z,2.40
2023-01-15T21:44:05.307Z,2.50
2023-01-15T21:49:07.438Z,2.60
2023-01-15T21:54:09.579Z,2.75
2023-01-15T21:59:13.940Z,2.80
2023-01-15T22:04:16.374Z,2.40
2023-01-15T22:09:19.289Z,2.50
2023-01-15T22:14:26.847Z,2.10
2023-01-15T22:19:31.299Z,2.17
2023-01-15T22:24:35.712Z,2.10
2023-01-15T22:29:41.485Z,2.60
2023-01-15T22:34:44.199Z,2.00
2023-01-15T22:39:46.435Z,2.05
2023-01-15T22:44:50.494Z,2.40
2023-01-15T22:49:52.696Z,1.80
2023-01-15T22:54:54.916Z,2.20
2023-01-15T22:59:58.584Z,2.03
2023-01-15T23:05:00.722Z,2.28
2023-01-15T23:10:02.958Z,1.90
2023-01-15T23:15:08.463Z,2.20
2023-01-15T23:20:12.658Z,1.77
2023-01-15T23:25:14.931Z,1.40
2023-01-15T23:30:18.697Z,1.33
2023-01-15T23:35:20.808Z,1.48
2023-01-15T23:40:23.168Z,1.77
2023-01-15T23:45:26.737Z,1.88
2023-01-15T23:50:28.950Z,2.07
2023-01-15T23:55:31.182Z,1.70
